Millenium Air

Millenium Air Since 1998



 METAR AND TAF INFORMATION
METAR FOR EGPH
ADDS - METARS form results

(2257 UTC 06 March 2021)
Data provider http://aviationweather.gov/metar/data/
 
METAR text: EGPH 062250Z 25007KT CAVOK 04/00 Q1029
Conditions at: EGPH (EDINBURGH AIRPOR, GB) observed 2250 UTC 06 March 2021
Temperature: 4.0°C (39°F)
Dewpoint: 0.0°C (32°F) [RH = 75%]
Pressure (altimeter): 30.38 inches Hg (1029.0 mb)
Winds: from the WSW (250 degrees) at 8 MPH (7 knots; 3.6 m/s)
Visibility: 6 or more miles (10+ km)
Ceiling: ceiling and visibility are OK
Clouds: unknown
Weather: no significant weather observed at this time

METAR text: EGPH 062220Z 27006KT 240V300 CAVOK 04/M00 Q1029
Conditions at: EGPH (EDINBURGH AIRPOR, GB) observed 2220 UTC 06 March 2021
Temperature: 4.0°C (39°F)
Dewpoint: 0.0°C (32°F) [RH = 75%]
Pressure (altimeter): 30.38 inches Hg (1029.0 mb)
Winds: from the W (270 degrees) at 7 MPH (6 knots; 3.1 m/s)
Visibility: 6 or more miles (10+ km)
Ceiling: ceiling and visibility are OK
Clouds: unknown
Weather: no significant weather observed at this time

Forecast for: EGPH (EDINBURGH AIRPOR, GB)
Text: TAF EGPH 061654Z 0618/0718 25008KT 9999 FEW040
Forecast period: 1800 UTC 06 March 2021 to 1800 UTC 07 March 2021
Forecast type: FROM: standard forecast or significant change
Winds: from the WSW (250 degrees) at 9 MPH (8 knots; 4.1 m/s)
Visibility: 6 or more miles (10+ km)
Ceiling: at least 12,000 feet AGL
Clouds: few clouds at 4000 feet AGL
Weather: no significant weather forecast for this period
Text: PROB40
Forecast period: 1200 to 1800 UTC 07 March 2021
Forecast type: TEMPORARY: The following changes expected for less than half the time period
Visibility: 5 miles (8 km)
Ceiling: 1400 feet AGL
Clouds: broken clouds at 1400 feet AGL
Weather: -RA  (light rain)

 AIRPORT MAP

 RUNWAY INFORMATION
Runway 06 Runway length 8400 ft Runway width 150 ft
Runway elevation 110 ft Runway displaced threshold 700 ft Runway heading 59
Runway 24 Runway length 8400 ft Runway width 150 ft
Runway elevation 100 ft Runway displaced threshold 700 ft Runway heading 239
Runway 08 Runway length 2621 ft Runway width 150 ft
Runway elevation 100 ft Runway displaced threshold 0 ft Runway heading 70
Runway 26 Runway length 2621 ft Runway width 150 ft
Runway elevation 110 ft Runway displaced threshold 0 ft Runway heading 250
Runway 12 Runway length 5730 ft Runway width 150 ft
Runway elevation 99 ft Runway displaced threshold 0 ft Runway heading 119
Runway 30 Runway length 5730 ft Runway width 150 ft
Runway elevation 134 ft Runway displaced threshold 204 ft Runway heading 299

 AIRPORT FREQUENCIES
Type APP Name APP Frequency 121.2 MHZ
Type ATIS Name ATIS Frequency 131.35 MHZ
Type GND Name GND Frequency 121.75 MHZ
Type TWR Name TWR Frequency 118.7 MHZ

 AIRPORT NEAR NAVIGATION AIDS
Type NDB Name Edinburgh Frequency 341 KHZ
Type NDB Name Edinburgh Frequency 368 KHZ